createdAt,value
2022-11-25T00:01:30.402Z,92755.50
2022-11-25T00:03:02.287Z,92765.09
2022-11-25T00:04:37.213Z,92768.00
2022-11-25T00:06:10.108Z,92768.78
2022-11-25T00:07:42.321Z,92770.44
2022-11-25T00:09:14.109Z,92774.97
2022-11-25T00:10:45.972Z,92782.47
2022-11-25T00:12:17.822Z,92785.66
2022-11-25T00:13:49.512Z,92778.16
2022-11-25T00:15:21.038Z,92785.09
2022-11-25T00:16:52.545Z,92773.34
2022-11-25T00:18:24.444Z,92779.25
2022-11-25T00:19:56.355Z,92778.69
2022-11-25T00:21:29.575Z,92781.84
2022-11-25T00:23:01.431Z,92777.56
2022-11-25T00:24:33.467Z,92785.91
2022-11-25T00:26:11.771Z,92785.38
2022-11-25T00:27:43.633Z,92779.25
2022-11-25T00:29:15.497Z,92780.03
2022-11-25T00:30:47.134Z,92783.50
2022-11-25T00:32:18.802Z,92780.84
2022-11-25T00:33:50.569Z,92782.44
2022-11-25T00:35:22.030Z,92777.88
2022-11-25T00:36:53.687Z,92779.75
2022-11-25T00:38:25.331Z,92782.91
2022-11-25T00:39:56.874Z,92784.22
2022-11-25T00:41:46.905Z,92784.22
2022-11-25T00:43:37.438Z,92782.59
2022-11-25T00:45:09.196Z,92784.47
2022-11-25T00:46:40.945Z,92782.09
2022-11-25T00:48:12.727Z,92782.31
2022-11-25T00:49:47.994Z,92776.19
2022-11-25T00:51:19.583Z,92786.34
2022-11-25T00:52:51.326Z,92777.56
2022-11-25T00:54:22.936Z,92771.44
2022-11-25T00:56:13.159Z,92779.25
2022-11-25T00:57:44.953Z,92781.41
2022-11-25T00:59:16.882Z,92779.56
2022-11-25T01:00:48.549Z,92780.34
2022-11-25T01:02:20.219Z,92783.31
2022-11-25T01:03:52.307Z,92787.06
2022-11-25T01:05:23.797Z,92782.81
2022-11-25T01:06:56.916Z,92779.88
2022-11-25T01:08:31.757Z,92789.44
2022-11-25T01:10:03.455Z,92786.78
2022-11-25T01:11:35.173Z,92786.78
2022-11-25T01:13:06.773Z,92786.28
2022-11-25T01:14:38.671Z,92791.91
2022-11-25T01:16:11.812Z,92787.63
2022-11-25T01:17:43.306Z,92789.44
2022-11-25T01:19:15.451Z,92793.97
2022-11-25T01:20:47.552Z,92803.88
2022-11-25T01:22:19.081Z,92794.56
2022-11-25T01:23:50.954Z,92807.38
2022-11-25T01:25:22.485Z,92799.66
2022-11-25T01:26:54.333Z,92798.34
2022-11-25T01:28:25.839Z,92804.53
2022-11-25T01:29:57.457Z,92796.81
2022-11-25T01:31:33.596Z,92802.16
2022-11-25T01:33:05.753Z,92786.97
2022-11-25T01:34:37.754Z,92788.84
2022-11-25T01:36:13.196Z,92787.22
2022-11-25T01:37:44.752Z,92787.47
2022-11-25T01:39:17.604Z,92789.59
2022-11-25T01:40:49.249Z,92779.44
2022-11-25T01:42:21.132Z,92779.66
2022-11-25T01:44:09.328Z,92771.91
2022-11-25T01:45:40.892Z,92763.91
2022-11-25T01:47:16.251Z,92767.34
2022-11-25T01:48:51.781Z,92769.47
2022-11-25T01:50:23.414Z,92762.75
2022-11-25T01:51:58.063Z,92767.81
2022-11-25T01:53:29.602Z,92765.13
2022-11-25T01:55:05.993Z,92768.41
2022-11-25T01:56:39.657Z,92766.81
2022-11-25T01:58:18.412Z,92767.09
2022-11-25T01:59:50.532Z,92772.69
2022-11-25T02:01:22.476Z,92767.63
2022-11-25T02:02:54.934Z,92775.91
2022-11-25T02:04:28.116Z,92771.72
2022-11-25T02:06:18.117Z,92773.31
2022-11-25T02:07:49.980Z,92780.81
2022-11-25T02:09:21.631Z,92770.41
2022-11-25T02:10:54.112Z,92772.56
2022-11-25T02:12:25.687Z,92772.28
2022-11-25T02:13:57.317Z,92774.44
2022-11-25T02:15:28.981Z,92775.50
2022-11-25T02:17:01.459Z,92775.78
2022-11-25T02:18:33.634Z,92777.94
2022-11-25T02:20:09.686Z,92776.13
2022-11-25T02:21:42.217Z,92774.53
2022-11-25T02:23:34.353Z,92777.47
2022-11-25T02:25:24.679Z,92778.53
2022-11-25T02:26:56.315Z,92780.13
2022-11-25T02:28:28.571Z,92775.88
2022-11-25T02:30:00.082Z,92775.06
2022-11-25T02:31:31.663Z,92770.53
2022-11-25T02:33:03.268Z,92772.13
2022-11-25T02:34:35.088Z,92775.03
2022-11-25T02:36:07.403Z,92772.38
2022-11-25T02:37:39.043Z,92772.66
2022-11-25T02:39:10.572Z,92778.50
2022-11-25T02:40:44.578Z,92779.53
2022-11-25T02:42:16.211Z,92780.84
2022-11-25T02:43:47.770Z,92786.69
2022-11-25T02:45:20.214Z,92781.34
2022-11-25T02:46:52.012Z,92785.09
2022-11-25T02:48:39.744Z,92784.31
2022-11-25T02:50:15.909Z,92784.84
2022-11-25T02:51:47.568Z,92788.91
2022-11-25T02:53:19.269Z,92784.38
2022-11-25T02:54:50.798Z,92789.13
2022-11-25T02:56:23.158Z,92788.03
2022-11-25T02:57:54.659Z,92793.38
2022-11-25T02:59:26.182Z,92795.53
2022-11-25T03:00:58.653Z,92796.31
2022-11-25T03:02:30.598Z,92799.22
2022-11-25T03:04:02.357Z,92792.53
2022-11-25T03:05:34.281Z,92794.66
2022-11-25T03:07:06.066Z,92793.28
2022-11-25T03:08:38.295Z,92800.22
2022-11-25T03:10:09.964Z,92795.94
2022-11-25T03:12:00.278Z,92801.81
2022-11-25T03:13:32.039Z,92803.13
2022-11-25T03:15:03.774Z,92797.50
2022-11-25T03:16:35.943Z,92798.81
2022-11-25T03:18:07.580Z,92798.03
2022-11-25T03:19:39.098Z,92797.97
2022-11-25T03:21:10.696Z,92807.56
2022-11-25T03:22:42.600Z,92805.69
2022-11-25T03:24:14.293Z,92804.91
2022-11-25T03:25:45.855Z,92805.69
2022-11-25T03:27:17.423Z,92794.22
2022-11-25T03:28:48.910Z,92808.09
2022-11-25T03:30:21.208Z,92806.50
2022-11-25T03:31:52.897Z,92815.28
2022-11-25T03:33:24.503Z,92815.28
2022-11-25T03:34:56.105Z,92814.47
2022-11-25T03:36:27.680Z,92820.88
2022-11-25T03:37:59.183Z,92815.53
2022-11-25T03:39:30.870Z,92818.75
2022-11-25T03:41:02.435Z,92817.16
2022-11-25T03:42:34.004Z,92829.72
2022-11-25T03:44:05.758Z,92827.84
2022-11-25T03:45:37.466Z,92830.78
2022-11-25T03:47:09.498Z,92831.34
2022-11-25T03:48:41.029Z,92838.56
2022-11-25T03:50:13.121Z,92835.91
2022-11-25T03:51:45.212Z,92838.06
2022-11-25T03:53:16.885Z,92841.78
2022-11-25T03:54:48.795Z,92839.13
2022-11-25T03:56:20.512Z,92838.59
2022-11-25T03:57:52.090Z,92837.53
2022-11-25T03:59:23.861Z,92846.06
2022-11-25T04:00:55.436Z,92845.81
2022-11-25T04:02:27.109Z,92842.06
2022-11-25T04:03:58.739Z,92846.06
2022-11-25T04:05:30.281Z,92843.59
2022-11-25T04:07:01.863Z,92850.25
2022-11-25T04:08:33.542Z,92850.53
2022-11-25T04:10:05.466Z,92840.66
2022-11-25T04:11:55.777Z,92847.59
2022-11-25T04:13:27.783Z,92848.94
2022-11-25T04:14:59.532Z,92855.66
2022-11-25T04:16:31.153Z,92853.78
2022-11-25T04:18:02.845Z,92859.41
2022-11-25T04:19:34.343Z,92857.00
2022-11-25T04:21:06.027Z,92850.88
2022-11-25T04:22:37.615Z,92864.75
2022-11-25T04:24:09.728Z,92864.22
2022-11-25T04:25:41.315Z,92870.91
2022-11-25T04:27:12.977Z,92866.91
2022-11-25T04:28:44.957Z,92872.84
2022-11-25T04:30:16.518Z,92865.91
2022-11-25T04:31:48.206Z,92877.66
2022-11-25T04:33:19.791Z,92872.59
2022-11-25T04:34:51.401Z,92879.78
2022-11-25T04:36:23.071Z,92875.25
2022-11-25T04:37:54.762Z,92885.13
2022-11-25T04:39:26.324Z,92875.53
2022-11-25T04:40:57.849Z,92884.06
2022-11-25T04:42:32.313Z,92877.94
2022-11-25T04:44:04.000Z,92889.19
2022-11-25T04:45:58.650Z,92885.44
2022-11-25T04:47:27.507Z,92891.06
2022-11-25T04:48:59.005Z,92894.56
2022-11-25T04:50:30.724Z,92893.75
2022-11-25T04:52:02.389Z,92898.28
2022-11-25T04:53:34.058Z,92893.22
2022-11-25T04:55:06.059Z,92905.28
2022-11-25T04:56:37.729Z,92908.22
2022-11-25T04:58:10.338Z,92920.22
2022-11-25T04:59:42.365Z,92914.09
2022-11-25T05:01:13.938Z,92924.50
2022-11-25T05:02:45.503Z,92927.16
2022-11-25T05:04:17.261Z,92920.00
2022-11-25T05:05:49.107Z,92922.69
2022-11-25T05:07:21.180Z,92924.84
2022-11-25T05:08:52.880Z,92922.97
2022-11-25T05:10:24.403Z,92931.81
2022-11-25T05:11:56.347Z,92941.16
2022-11-25T05:13:28.045Z,92939.81
2022-11-25T05:14:59.769Z,92947.03
2022-11-25T05:16:31.589Z,92943.03
2022-11-25T05:18:03.244Z,92952.09
2022-11-25T05:19:36.461Z,92948.34
2022-11-25T05:21:08.430Z,92944.63
2022-11-25T05:22:40.057Z,92947.28
2022-11-25T05:24:11.585Z,92952.63
2022-11-25T05:25:43.166Z,92958.22
2022-11-25T05:27:14.900Z,92958.22
2022-11-25T05:28:46.665Z,92965.69
2022-11-25T05:30:18.418Z,92964.88
2022-11-25T05:31:49.954Z,92966.22
2022-11-25T05:33:21.861Z,92973.94
2022-11-25T05:34:53.800Z,92974.75
2022-11-25T05:36:25.481Z,92977.16
2022-11-25T05:37:57.585Z,92984.34
2022-11-25T05:39:29.418Z,92990.19
2022-11-25T05:41:01.972Z,92985.41
2022-11-25T05:42:33.613Z,92993.13
2022-11-25T05:44:05.688Z,92995.53
2022-11-25T05:45:38.912Z,93003.22
2022-11-25T05:47:10.704Z,93002.97
2022-11-25T05:48:42.322Z,93004.81
2022-11-25T05:50:13.964Z,93012.53
2022-11-25T05:51:45.726Z,93007.22
2022-11-25T05:53:20.059Z,93015.22
2022-11-25T05:54:56.852Z,93023.22
2022-11-25T05:56:28.960Z,93023.75
2022-11-25T05:58:00.555Z,93026.91
2022-11-25T05:59:32.237Z,93026.63
2022-11-25T06:01:10.081Z,93031.72
2022-11-25T06:02:41.919Z,93038.63
2022-11-25T06:04:14.288Z,93033.03
2022-11-25T06:05:46.105Z,93025.56
2022-11-25T06:07:17.954Z,93039.41
2022-11-25T06:08:49.998Z,93037.25
2022-11-25T06:10:21.871Z,93041.03
2022-11-25T06:11:54.157Z,93045.31
2022-11-25T06:13:26.032Z,93051.16
2022-11-25T06:14:57.863Z,93049.56
2022-11-25T06:16:30.171Z,93053.31
2022-11-25T06:18:02.379Z,93053.84
2022-11-25T06:19:34.161Z,93063.69
2022-11-25T06:21:06.160Z,93063.69
2022-11-25T06:22:38.127Z,93065.03
2022-11-25T06:24:09.732Z,93058.09
2022-11-25T06:25:41.413Z,93063.72
2022-11-25T06:27:13.293Z,93061.03
2022-11-25T06:28:45.359Z,93063.44
2022-11-25T06:30:17.167Z,93067.72
2022-11-25T06:31:51.712Z,93065.56
2022-11-25T06:33:23.636Z,93072.50
2022-11-25T06:34:55.502Z,93071.16
2022-11-25T06:36:27.594Z,93068.78
2022-11-25T06:37:59.471Z,93063.97
2022-11-25T06:39:31.128Z,93077.28
2022-11-25T06:41:03.351Z,93067.94
2022-11-25T06:42:35.303Z,93069.53
2022-11-25T06:44:06.867Z,93076.72
2022-11-25T06:45:38.453Z,93079.09
2022-11-25T06:47:10.277Z,93070.03
2022-11-25T06:48:42.114Z,93071.88
2022-11-25T06:50:13.774Z,93070.50
2022-11-25T06:51:45.532Z,93075.56
2022-11-25T06:53:21.177Z,93075.03
2022-11-25T06:54:55.562Z,93083.03
2022-11-25T06:56:28.753Z,93084.09
2022-11-25T06:58:27.843Z,93086.50
2022-11-25T06:59:52.563Z,93089.50
2022-11-25T07:01:25.242Z,93091.09
2022-11-25T07:02:56.953Z,93090.84
2022-11-25T07:04:28.746Z,93098.06
2022-11-25T07:06:00.585Z,93092.72
2022-11-25T07:07:32.424Z,93090.84
2022-11-25T07:09:04.170Z,93091.63
2022-11-25T07:10:35.862Z,93099.13
2022-11-25T07:12:07.450Z,93093.22
2022-11-25T07:13:39.170Z,93095.09
2022-11-25T07:15:10.902Z,93097.19
2022-11-25T07:16:43.946Z,93098.50
2022-11-25T07:18:15.816Z,93102.47
2022-11-25T07:19:47.745Z,93103.78
2022-11-25T07:21:21.058Z,93093.44
2022-11-25T07:22:52.771Z,93101.22
2022-11-25T07:24:24.348Z,93095.09
2022-11-25T07:25:56.268Z,93093.22
2022-11-25T07:27:29.089Z,93094.03
2022-11-25T07:29:01.643Z,93100.69
2022-11-25T07:32:24.951Z,93096.59
2022-11-25T07:33:57.469Z,93103.72
2022-11-25T07:35:29.131Z,93100.94
2022-11-25T07:37:01.069Z,93091.69
2022-11-25T07:38:33.268Z,93087.56
2022-11-25T07:40:05.457Z,93103.66
2022-11-25T07:41:37.194Z,93098.41
2022-11-25T07:43:08.769Z,93102.13
2022-11-25T07:44:40.415Z,93108.50
2022-11-25T07:46:13.388Z,93106.06
2022-11-25T07:47:44.947Z,93107.38
2022-11-25T07:49:17.581Z,93109.19
2022-11-25T07:50:50.381Z,93109.69
2022-11-25T07:52:22.317Z,93114.75
2022-11-25T07:53:54.508Z,93111.88
2022-11-25T07:55:26.102Z,93102.06
2022-11-25T07:56:57.795Z,93111.22
2022-11-25T07:58:29.542Z,93106.69
2022-11-25T08:00:01.760Z,93106.91
2022-11-25T08:01:33.368Z,93115.88
2022-11-25T08:03:05.087Z,93114.41
2022-11-25T08:04:37.028Z,93123.53
2022-11-25T08:06:16.669Z,93127.81
2022-11-25T08:07:48.292Z,93117.94
2022-11-25T08:09:21.082Z,93115.75
2022-11-25T08:10:52.601Z,93110.53
2022-11-25T08:12:24.847Z,93110.97
2022-11-25T08:13:56.933Z,93108.22
2022-11-25T08:15:28.479Z,93104.50
2022-11-25T08:17:00.351Z,93107.94
2022-11-25T08:18:32.044Z,93106.13
2022-11-25T08:20:03.881Z,93104.28
2022-11-25T08:21:35.973Z,93105.41
2022-11-25T08:23:07.612Z,93101.81
2022-11-25T08:24:39.389Z,93108.78
2022-11-25T08:26:12.219Z,93110.75
2022-11-25T08:27:44.091Z,93114.75
2022-11-25T08:29:16.126Z,93119.84
2022-11-25T08:30:47.657Z,93120.75
2022-11-25T08:32:19.701Z,93122.03
2022-11-25T08:33:51.966Z,93131.47
2022-11-25T08:35:24.219Z,93127.94
2022-11-25T08:36:55.930Z,93137.56
2022-11-25T08:38:27.833Z,93130.63
2022-11-25T08:40:00.637Z,93129.47
2022-11-25T08:41:33.954Z,93126.69
2022-11-25T08:43:05.572Z,93116.16
2022-11-25T08:44:37.512Z,93119.16
2022-11-25T08:46:10.464Z,93118.88
2022-11-25T08:47:42.132Z,93116.72
2022-11-25T08:49:14.244Z,93117.78
2022-11-25T08:50:47.187Z,93121.88
2022-11-25T08:52:18.961Z,93125.06
2022-11-25T08:53:53.531Z,93123.47
2022-11-25T08:55:27.403Z,93117.81
2022-11-25T08:57:00.959Z,93129.53
2022-11-25T08:58:32.796Z,93124.94
2022-11-25T09:00:07.537Z,93118.56
2022-11-25T09:01:39.268Z,93121.25
2022-11-25T09:03:11.029Z,93129.13
2022-11-25T09:04:42.900Z,93116.66
2022-11-25T09:06:15.058Z,93116.56
2022-11-25T09:07:46.665Z,93124.13
2022-11-25T09:09:18.468Z,93130.31
2022-11-25T09:10:50.673Z,93134.97
2022-11-25T09:12:22.501Z,93131.66
2022-11-25T09:13:54.170Z,93135.47
2022-11-25T09:15:25.863Z,93126.28
2022-11-25T09:16:57.602Z,93139.25
2022-11-25T09:18:30.663Z,93125.41
2022-11-25T09:20:02.339Z,93129.81
2022-11-25T09:21:35.174Z,93125.84
2022-11-25T09:23:07.904Z,93126.56
2022-11-25T09:24:39.677Z,93134.38
2022-11-25T09:26:17.892Z,93124.91
2022-11-25T09:27:49.819Z,93136.84
2022-11-25T09:29:21.483Z,93139.34
2022-11-25T09:30:53.479Z,93136.53
2022-11-25T09:32:25.271Z,93133.16
2022-11-25T09:33:57.505Z,93134.56
2022-11-25T09:35:29.701Z,93136.53
2022-11-25T09:37:01.388Z,93138.50
2022-11-25T09:38:35.658Z,93134.59
2022-11-25T09:40:11.944Z,93138.25
2022-11-25T09:42:09.663Z,93129.09
2022-11-25T09:44:22.191Z,93129.22
2022-11-25T09:46:14.106Z,93130.91
2022-11-25T09:47:48.966Z,93140.81
2022-11-25T09:49:41.193Z,93134.94
2022-11-25T09:51:18.927Z,93133.63
2022-11-25T09:52:54.242Z,93141.34
2022-11-25T09:54:46.248Z,93134.66
2022-11-25T09:56:38.720Z,93131.16
2022-11-25T09:58:19.595Z,93134.28
2022-11-25T09:59:55.237Z,93140.66
2022-11-25T10:01:27.430Z,93141.16
2022-11-25T10:03:00.315Z,93129.41
2022-11-25T10:04:40.200Z,93134.28
2022-11-25T10:06:12.213Z,93136.47
2022-11-25T10:07:44.955Z,93137.56
2022-11-25T10:09:17.877Z,93140.16
2022-11-25T10:10:57.272Z,93138.19
2022-11-25T10:12:29.762Z,93144.75
2022-11-25T10:14:03.088Z,93139.47
2022-11-25T10:15:36.037Z,93148.53
2022-11-25T10:17:11.752Z,93149.53
2022-11-25T10:18:45.717Z,93157.88
2022-11-25T10:20:30.649Z,93148.00
2022-11-25T10:22:05.665Z,93147.50
2022-11-25T10:23:38.399Z,93144.31
2022-11-25T10:25:13.811Z,93130.97
2022-11-25T10:26:46.575Z,93126.41
2022-11-25T10:28:19.997Z,93132.38
2022-11-25T10:29:56.638Z,93124.50
2022-11-25T10:31:33.450Z,93127.59
2022-11-25T10:33:05.908Z,93127.59
2022-11-25T10:34:48.342Z,93143.00
2022-11-25T10:36:35.859Z,93135.06
2022-11-25T10:38:08.459Z,93129.03
2022-11-25T10:39:40.539Z,93126.72
2022-11-25T10:41:13.392Z,93132.78
2022-11-25T10:42:45.158Z,93138.97
2022-11-25T10:44:33.142Z,93142.16
2022-11-25T10:46:17.362Z,93142.25
2022-11-25T10:47:53.159Z,93143.94
2022-11-25T10:49:25.192Z,93136.09
2022-11-25T10:51:15.705Z,93139.31
2022-11-25T10:52:55.514Z,93136.75
2022-11-25T10:54:28.507Z,93143.75
2022-11-25T10:56:03.789Z,93146.59
2022-11-25T10:57:35.400Z,93147.56
2022-11-25T10:59:13.320Z,93155.28
2022-11-25T11:00:45.325Z,93152.59
2022-11-25T11:02:16.999Z,93160.44
2022-11-25T11:03:52.858Z,93156.41
2022-11-25T11:05:29.905Z,93140.63
2022-11-25T11:07:07.181Z,93165.28
2022-11-25T11:08:39.550Z,93168.88
2022-11-25T11:10:18.480Z,93169.53
2022-11-25T11:11:50.368Z,93173.19
2022-11-25T11:13:27.293Z,93175.91
2022-11-25T11:15:31.312Z,93173.97
2022-11-25T11:17:03.116Z,93174.78
2022-11-25T11:18:38.013Z,93179.78
2022-11-25T11:20:09.908Z,93175.00
2022-11-25T11:21:41.893Z,93175.28
2022-11-25T11:23:14.657Z,93181.75
2022-11-25T11:24:46.764Z,93172.38
2022-11-25T11:26:22.832Z,93176.97
2022-11-25T11:27:54.801Z,93170.09
2022-11-25T11:29:26.435Z,93177.00
2022-11-25T11:31:01.827Z,93174.59
2022-11-25T11:32:33.677Z,93183.53
2022-11-25T11:34:08.380Z,93184.03
2022-11-25T11:35:59.176Z,93181.06
2022-11-25T11:37:39.960Z,93183.06
2022-11-25T11:39:25.178Z,93179.38
2022-11-25T11:41:00.717Z,93186.03
2022-11-25T11:42:39.741Z,93189.91
2022-11-25T11:44:15.429Z,93192.09
2022-11-25T11:45:48.556Z,93192.84
2022-11-25T11:47:29.284Z,93190.84
2022-11-25T11:49:03.539Z,93196.81
2022-11-25T11:50:35.252Z,93192.44
2022-11-25T11:52:11.799Z,93188.06
2022-11-25T11:53:44.120Z,93191.34
2022-11-25T11:55:36.063Z,93193.59
2022-11-25T11:57:10.971Z,93191.91
2022-11-25T11:58:42.891Z,93194.97
2022-11-25T12:00:15.552Z,93197.22
2022-11-25T12:01:55.280Z,93200.00
2022-11-25T12:03:27.021Z,93193.91
2022-11-25T12:05:01.544Z,93190.91
2022-11-25T12:06:33.837Z,93197.88
2022-11-25T12:08:11.323Z,93200.34
2022-11-25T12:09:44.867Z,93200.66
2022-11-25T12:11:39.898Z,93203.34
2022-11-25T12:13:11.545Z,93199.75
2022-11-25T12:14:44.084Z,93198.97
2022-11-25T12:16:17.921Z,93200.06
2022-11-25T12:17:52.692Z,93208.72
2022-11-25T12:19:33.888Z,93208.78
2022-11-25T12:21:06.326Z,93203.97
2022-11-25T12:22:49.774Z,93202.59
2022-11-25T12:24:33.632Z,93200.78
2022-11-25T12:26:07.515Z,93195.22
2022-11-25T12:27:40.761Z,93197.19
2022-11-25T12:29:13.644Z,93192.59
2022-11-25T12:30:51.178Z,93198.19
2022-11-25T12:32:28.725Z,93198.44
2022-11-25T12:34:02.844Z,93191.66
2022-11-25T12:35:40.551Z,93197.13
2022-11-25T12:37:15.372Z,93195.81
2022-11-25T12:38:57.547Z,93189.38
2022-11-25T12:40:29.370Z,93191.94
2022-11-25T12:42:01.833Z,93193.59
2022-11-25T12:43:34.106Z,93192.59
2022-11-25T12:45:06.196Z,93187.53
2022-11-25T12:46:45.349Z,93186.72
2022-11-25T12:48:21.269Z,93196.34
2022-11-25T12:49:53.281Z,93196.41
2022-11-25T12:51:29.046Z,93189.78
2022-11-25T12:53:02.820Z,93190.84
2022-11-25T12:54:37.505Z,93187.09
2022-11-25T12:56:12.979Z,93191.06
2022-11-25T12:57:49.305Z,93195.63
2022-11-25T12:59:40.290Z,93180.34
2022-11-25T13:01:11.964Z,93184.31
2022-11-25T13:02:53.080Z,93177.88
2022-11-25T13:04:40.103Z,93182.94
2022-11-25T13:06:23.739Z,93177.59
2022-11-25T13:08:12.420Z,93184.31
2022-11-25T13:09:44.219Z,93189.78
2022-11-25T13:11:29.355Z,93185.50
2022-11-25T13:13:07.350Z,93189.47
2022-11-25T13:14:48.739Z,93190.50
2022-11-25T13:16:21.889Z,93191.56
2022-11-25T13:17:58.147Z,93187.28
2022-11-25T13:19:29.850Z,93187.28
2022-11-25T13:21:08.794Z,93184.63
2022-11-25T13:22:40.421Z,93189.25
2022-11-25T13:24:26.496Z,93184.47
2022-11-25T13:26:17.355Z,93195.19
2022-11-25T13:27:49.401Z,93189.88
2022-11-25T13:29:27.005Z,93182.97
2022-11-25T13:31:14.390Z,93192.88
2022-11-25T13:32:46.497Z,93192.38
2022-11-25T13:34:20.754Z,93184.63
2022-11-25T13:35:52.485Z,93190.53
2022-11-25T13:37:37.671Z,93183.28
2022-11-25T13:39:14.716Z,93196.69
2022-11-25T13:40:49.489Z,93190.25
2022-11-25T13:42:23.472Z,93190.53
2022-11-25T13:44:02.415Z,93191.34
2022-11-25T13:45:35.525Z,93185.97
2022-11-25T13:47:26.063Z,93186.78
2022-11-25T13:48:57.700Z,93192.50
2022-11-25T13:50:48.269Z,93196.31
2022-11-25T13:52:24.911Z,93197.63
2022-11-25T13:53:58.076Z,93204.88
2022-11-25T13:55:34.221Z,93195.22
2022-11-25T13:57:11.756Z,93201.97
2022-11-25T13:59:03.237Z,93193.19
2022-11-25T14:00:34.973Z,93198.84
2022-11-25T14:02:25.223Z,93200.69
2022-11-25T14:03:57.622Z,93196.97
2022-11-25T14:05:29.176Z,93207.69
2022-11-25T14:07:21.112Z,93195.66
2022-11-25T14:08:58.684Z,93197.75
2022-11-25T14:10:50.395Z,93213.56
2022-11-25T14:12:24.863Z,93209.28
2022-11-25T14:14:15.311Z,93208.75
2022-11-25T14:16:05.318Z,93209.31
2022-11-25T14:17:42.302Z,93211.56
2022-11-25T14:19:50.084Z,93208.88
2022-11-25T14:21:33.589Z,93208.59
2022-11-25T14:23:17.058Z,93211.50
2022-11-25T14:24:52.799Z,93213.59
2022-11-25T14:26:49.345Z,93215.72
2022-11-25T14:28:22.946Z,93219.44
2022-11-25T14:29:55.790Z,93215.72
2022-11-25T14:31:31.736Z,93221.13
2022-11-25T14:33:03.871Z,93217.72
2022-11-25T14:34:56.650Z,93215.31
2022-11-25T14:36:30.628Z,93223.63
2022-11-25T14:38:17.008Z,93229.78
2022-11-25T14:40:06.868Z,93222.84
2022-11-25T14:41:39.718Z,93225.00
2022-11-25T14:43:15.730Z,93222.03
2022-11-25T14:44:51.289Z,93229.00
2022-11-25T14:46:23.853Z,93226.84
2022-11-25T14:47:56.168Z,93226.84
2022-11-25T14:49:55.330Z,93227.13
2022-11-25T14:51:34.557Z,93228.28
2022-11-25T14:53:09.356Z,93223.47
2022-11-25T14:54:42.214Z,93227.78
2022-11-25T14:56:13.950Z,93227.28
2022-11-25T14:57:46.102Z,93225.13
2022-11-25T14:59:18.614Z,93221.06
2022-11-25T15:01:00.219Z,93232.59
2022-11-25T15:02:33.652Z,93229.91
2022-11-25T15:04:05.606Z,93220.00
2022-11-25T15:05:37.844Z,93221.38
2022-11-25T15:07:15.275Z,93230.19
2022-11-25T15:08:53.682Z,93231.00
2022-11-25T15:10:36.533Z,93233.94
2022-11-25T15:12:18.526Z,93232.34
2022-11-25T15:13:56.136Z,93235.84
2022-11-25T15:15:28.175Z,93234.53
2022-11-25T15:17:00.255Z,93229.75
2022-11-25T15:18:33.745Z,93232.19
2022-11-25T15:20:11.405Z,93233.81
2022-11-25T15:22:14.592Z,93226.09
2022-11-25T15:23:36.837Z,93235.22
2022-11-25T15:25:10.153Z,93233.34
2022-11-25T15:26:41.991Z,93230.13
2022-11-25T15:28:15.516Z,93226.69
2022-11-25T15:29:47.477Z,93227.22
2022-11-25T15:31:20.185Z,93242.19
2022-11-25T15:32:52.166Z,93243.53
2022-11-25T15:34:23.971Z,93236.84
2022-11-25T15:35:55.760Z,93238.72
2022-11-25T15:37:28.306Z,93243.00
2022-11-25T15:39:18.664Z,93241.66
2022-11-25T15:40:56.595Z,93230.41
2022-11-25T15:42:28.607Z,93242.47
2022-11-25T15:44:01.439Z,93249.19
2022-11-25T15:45:38.084Z,93252.66
2022-11-25T15:47:18.499Z,93245.44
2022-11-25T15:48:50.484Z,93251.06
2022-11-25T15:50:23.155Z,93255.63
2022-11-25T15:51:57.518Z,93254.84
2022-11-25T15:53:33.356Z,93255.94
2022-11-25T15:55:08.735Z,93257.00
2022-11-25T15:56:42.984Z,93251.38
2022-11-25T15:58:18.899Z,93258.38
2022-11-25T15:59:51.074Z,93259.97
2022-11-25T16:01:23.301Z,93255.41
2022-11-25T16:02:55.648Z,93262.91
2022-11-25T16:04:27.629Z,93254.72
2022-11-25T16:05:59.902Z,93259.88
2022-11-25T16:07:31.750Z,93258.56
2022-11-25T16:09:04.265Z,93249.00
2022-11-25T16:10:42.347Z,93260.00
2022-11-25T16:12:15.893Z,93266.44
2022-11-25T16:13:47.870Z,93271.03
2022-11-25T16:15:19.605Z,93270.84
2022-11-25T16:16:51.239Z,93269.78
2022-11-25T16:18:39.701Z,93274.34
2022-11-25T16:20:19.540Z,93283.16
2022-11-25T16:21:55.040Z,93275.41
2022-11-25T16:23:26.845Z,93280.75
2022-11-25T16:25:02.847Z,93270.34
2022-11-25T16:26:34.849Z,93272.25
2022-11-25T16:28:06.586Z,93273.59
2022-11-25T16:29:39.694Z,93277.66
2022-11-25T16:31:16.064Z,93278.47
2022-11-25T16:32:48.996Z,93272.06
2022-11-25T16:34:21.216Z,93268.59
2022-11-25T16:35:53.754Z,93267.25
2022-11-25T16:37:25.525Z,93271.56
2022-11-25T16:38:58.095Z,93267.84
2022-11-25T16:40:30.345Z,93279.59
2022-11-25T16:42:04.629Z,93266.50
2022-11-25T16:43:37.394Z,93274.78
2022-11-25T16:45:19.943Z,93272.13
2022-11-25T16:46:51.825Z,93265.75
2022-11-25T16:48:24.097Z,93267.63
2022-11-25T16:49:55.773Z,93276.16
2022-11-25T16:51:27.753Z,93274.00
2022-11-25T16:52:59.536Z,93276.97
2022-11-25T16:54:32.061Z,93287.41
2022-11-25T16:56:03.850Z,93285.53
2022-11-25T16:57:35.452Z,93279.16
2022-11-25T16:59:07.518Z,93286.13
2022-11-25T17:00:39.197Z,93281.06
2022-11-25T17:02:18.405Z,93282.97
2022-11-25T17:03:50.134Z,93288.31
2022-11-25T17:05:24.100Z,93278.41
2022-11-25T17:07:31.227Z,93276.81
2022-11-25T17:08:50.253Z,93284.03
2022-11-25T17:10:22.523Z,93286.72
2022-11-25T17:11:55.303Z,93289.09
2022-11-25T17:13:27.268Z,93296.31
2022-11-25T17:15:00.265Z,93293.66
2022-11-25T17:16:33.247Z,93294.19
2022-11-25T17:18:05.667Z,93290.97
2022-11-25T17:19:37.763Z,93296.88
2022-11-25T17:21:12.044Z,93296.34
2022-11-25T17:22:44.238Z,93296.91
2022-11-25T17:24:17.656Z,93301.97
2022-11-25T17:25:49.641Z,93296.63
2022-11-25T17:27:25.456Z,93308.91
2022-11-25T17:28:57.961Z,93293.16
2022-11-25T17:30:29.831Z,93302.78
2022-11-25T17:32:02.101Z,93307.06
2022-11-25T17:33:34.906Z,93304.34
2022-11-25T17:35:12.233Z,93308.34
2022-11-25T17:36:44.639Z,93307.56
2022-11-25T17:38:20.293Z,93306.22
2022-11-25T17:39:55.417Z,93302.47
2022-11-25T17:41:27.619Z,93307.81
2022-11-25T17:42:59.183Z,93313.69
2022-11-25T17:44:31.149Z,93313.69
2022-11-25T17:46:03.299Z,93310.75
2022-11-25T17:47:35.098Z,93310.75
2022-11-25T17:49:08.968Z,93310.22
2022-11-25T17:50:41.430Z,93305.94
2022-11-25T17:52:13.198Z,93311.03
2022-11-25T17:53:45.813Z,93308.09
2022-11-25T17:55:19.836Z,93305.94
2022-11-25T17:56:52.638Z,93301.94
2022-11-25T17:58:24.786Z,93306.75
2022-11-25T17:59:56.385Z,93304.34
2022-11-25T18:01:28.122Z,93302.78
2022-11-25T18:02:59.985Z,93299.56
2022-11-25T18:04:32.529Z,93299.03
2022-11-25T18:06:05.074Z,93300.94
2022-11-25T18:07:37.545Z,93308.16
2022-11-25T18:09:09.242Z,93302.00
2022-11-25T18:10:40.911Z,93298.03
2022-11-25T18:12:31.027Z,93307.94
2022-11-25T18:14:02.662Z,93308.75
2022-11-25T18:15:34.940Z,93314.34
2022-11-25T18:17:07.062Z,93311.69
2022-11-25T18:18:39.000Z,93314.63
2022-11-25T18:20:21.247Z,93322.09
2022-11-25T18:21:54.080Z,93308.22
2022-11-25T18:23:25.776Z,93310.31
2022-11-25T18:24:57.875Z,93314.09
2022-11-25T18:26:29.501Z,93309.28
2022-11-25T18:28:01.519Z,93300.75
2022-11-25T18:29:33.592Z,93312.22
2022-11-25T18:31:05.708Z,93315.44
2022-11-25T18:32:37.633Z,93311.69